Warning: Javascript must be enabled to use all the features on this page!


Page Loading - Please Wait...

Click to hideNews Bulletins

Peak Streamflow for the Nation

USGS 06406000 BATTLE CR AT HERMOSA,SD

Custer County, South Dakota
Hydrologic Unit Code 10120109
Latitude  43°49'41", Longitude 103°11'44" NAD27
Drainage area 169  square miles
Contributing drainage area 169  square miles
Gage datum 3,292 feet above NAVD88
Output formats
Table
Graph
Tab-separated file
peakfq (watstore) format
Reselect output format
Water
Year
Date Gage
Height
(feet)
Stream-
flow
(cfs)
1950 1950-07-02 3.013 149
1951 1951-06-24 2.853 163
1952 1952-05-22 14.003 2,950
1953 1953-06-19 5.563 519
1954 1954-08-26 1.203 7.00
1955 1955-06-17 1.373 16.0
1956 1956-07-02 7.903 869
1957 1957-07-28 12.163 1,950
1958 1958-05-04 2.943 153
1959 1959-06-29 2.003 34.0
1960 1960-05-27 4.023 262
1961 1961-07-19 3.25 190
1962 1962-07-13 12.44 1,820
1963 1963-06-16 7.92 891
1964 1964-06-09 3.22 164
1965 1965-05-24 8.23 974
1966 1966-08-19 2.78 90.0
1967 1967-06-12 8.75 984
1968 1968-08-07 4.51 341
1969 1969-07-17 5.39 484
1970 1970-06-12 5.60 520
1971 1971-06-01 6.83 653
1972 1972-06-10 17.72 21,400
1973 1973-04-20 5.12 261
1974 1974-08-23 3.09 44.0
1975 1975-06-19 5.32 317
1976 1976-06-15 11.40 1,390
1977 1977-07-27 4.21 142
1978 1978-05-18 5.05 244
1979 1979-07-29 5.92 367
1980 1979-10-22 2.90 14.0
1981 1981-05-18 7.97 689
1982 1982-06-05 3.45 58.0
1983 1983-05-08 3.05 29.0
1984 1984-06-11 4.84 189
1985 1985-07-15 7.60 593
1986 1986-06-14 3.90 86.0
1987 1987-03-05 4.18 113
1988 1988-05-02 2.402 5.70
1989 1989-09-07 5.75 205
1990 1990-05-30 8.40 683
1991 1991-06-06 9.94 995
1992 1992-09-29 3.00 23.0
1993 1993-06-07 10.63 1,130
1994 1994-03-03 3.062 26.0
1995 1995-05-08 12.68 2,400
1996 1996-05-28 8.53 742
1997 1997-05-25 8.81 789
1998 1998-06-18 9.71 949
1999 1999-06-19 10.51 1,190
2000 2000-04-25 4.39 152
2001 2001-07-12 5.77 309
2002 2002-05-11 2.992 29.0
2003 2003-07-06 3.45 61.0
2004 2003-11-28 2.69 13.0
2005 2005-07-25 2.85 20.0
2006 2006-08-08 8.94 786
2007 2007-08-17 16.14 18,600
2008 2008-05-24 10.05 870
2009 2009-07-02 4.95 135
2010 2010-05-24 12.52 2,270
2011 2011-05-30 8.76 769
2012 2011-10-06 3.102 30.0
2013 2013-08-06 3.10 24.0
2014 2013-10-11 9.54 900
2015 2015-05-24 11.04 1,560
2016 2016-05-21 6.36 386
2017 2017-06-13 3.04 22.0
2018 2018-07-18 7.78 633
2019 2019-05-28 12.51 2,280
2020 2020-05-30 3.47 48.2
2021 2021-07-05 3.32 36.1
?
  Peak Gage-Height Qualification Codes.